sensor_id;sensor_type;location;lat;lon;timestamp;P1;durP1;ratioP1;P2;durP2;ratioP2
21299;SDS011;10809;49.476;11.016;2023-07-29T00:00:54;1.63;;;1.63;;
21299;SDS011;10809;49.476;11.016;2023-07-29T00:03:25;1.48;;;1.48;;
21299;SDS011;10809;49.476;11.016;2023-07-29T00:05:56;1.42;;;1.42;;
21299;SDS011;10809;49.476;11.016;2023-07-29T00:08:26;1.60;;;1.60;;
21299;SDS011;10809;49.476;11.016;2023-07-29T00:10:57;1.50;;;1.50;;
21299;SDS011;10809;49.476;11.016;2023-07-29T00:13:27;1.50;;;1.50;;
21299;SDS011;10809;49.476;11.016;2023-07-29T00:15:58;1.58;;;1.58;;
21299;SDS011;10809;49.476;11.016;2023-07-29T00:18:29;1.88;;;1.55;;
21299;SDS011;10809;49.476;11.016;2023-07-29T00:20:59;1.70;;;1.70;;
21299;SDS011;10809;49.476;11.016;2023-07-29T00:23:30;1.70;;;1.60;;
21299;SDS011;10809;49.476;11.016;2023-07-29T00:26:00;1.85;;;1.80;;
21299;SDS011;10809;49.476;11.016;2023-07-29T00:28:34;1.63;;;1.63;;
21299;SDS011;10809;49.476;11.016;2023-07-29T00:31:05;1.77;;;1.77;;
21299;SDS011;10809;49.476;11.016;2023-07-29T00:33:44;1.73;;;1.63;;
21299;SDS011;10809;49.476;11.016;2023-07-29T00:36:17;1.60;;;1.60;;
21299;SDS011;10809;49.476;11.016;2023-07-29T00:38:52;2.00;;;1.90;;
21299;SDS011;10809;49.476;11.016;2023-07-29T00:41:26;1.58;;;1.58;;
21299;SDS011;10809;49.476;11.016;2023-07-29T00:43:57;1.73;;;1.67;;
21299;SDS011;10809;49.476;11.016;2023-07-29T00:46:27;1.48;;;1.48;;
21299;SDS011;10809;49.476;11.016;2023-07-29T00:49:01;1.55;;;1.45;;
21299;SDS011;10809;49.476;11.016;2023-07-29T00:51:32;2.17;;;1.63;;
21299;SDS011;10809;49.476;11.016;2023-07-29T00:54:08;1.55;;;1.48;;
21299;SDS011;10809;49.476;11.016;2023-07-29T00:56:39;1.50;;;1.50;;
21299;SDS011;10809;49.476;11.016;2023-07-29T00:59:10;1.85;;;1.85;;
21299;SDS011;10809;49.476;11.016;2023-07-29T01:01:41;1.58;;;1.58;;
21299;SDS011;10809;49.476;11.016;2023-07-29T01:04:27;1.80;;;1.73;;
21299;SDS011;10809;49.476;11.016;2023-07-29T01:07:11;1.60;;;1.60;;
21299;SDS011;10809;49.476;11.016;2023-07-29T01:12:54;1.67;;;1.63;;
21299;SDS011;10809;49.476;11.016;2023-07-29T01:18:35;1.95;;;1.85;;
21299;SDS011;10809;49.476;11.016;2023-07-29T01:21:12;1.75;;;1.75;;
21299;SDS011;10809;49.476;11.016;2023-07-29T01:23:47;2.22;;;2.13;;
21299;SDS011;10809;49.476;11.016;2023-07-29T01:26:17;1.73;;;1.65;;
21299;SDS011;10809;49.476;11.016;2023-07-29T01:28:48;1.60;;;1.60;;
21299;SDS011;10809;49.476;11.016;2023-07-29T01:34:35;2.78;;;1.67;;
21299;SDS011;10809;49.476;11.016;2023-07-29T01:37:13;1.92;;;1.77;;
21299;SDS011;10809;49.476;11.016;2023-07-29T01:39:49;2.00;;;1.90;;
21299;SDS011;10809;49.476;11.016;2023-07-29T01:42:24;1.95;;;1.90;;
21299;SDS011;10809;49.476;11.016;2023-07-29T01:44:56;2.10;;;2.00;;
21299;SDS011;10809;49.476;11.016;2023-07-29T01:47:26;1.52;;;1.52;;
21299;SDS011;10809;49.476;11.016;2023-07-29T01:49:59;1.90;;;1.80;;
21299;SDS011;10809;49.476;11.016;2023-07-29T01:52:29;1.65;;;1.65;;
21299;SDS011;10809;49.476;11.016;2023-07-29T01:55:03;2.10;;;2.00;;
21299;SDS011;10809;49.476;11.016;2023-07-29T01:57:33;2.20;;;2.10;;
21299;SDS011;10809;49.476;11.016;2023-07-29T02:00:04;2.13;;;2.03;;
21299;SDS011;10809;49.476;11.016;2023-07-29T02:02:53;1.88;;;1.83;;
21299;SDS011;10809;49.476;11.016;2023-07-29T02:05:24;1.88;;;1.77;;
21299;SDS011;10809;49.476;11.016;2023-07-29T02:07:54;2.38;;;2.28;;
21299;SDS011;10809;49.476;11.016;2023-07-29T02:10:28;2.30;;;1.88;;
21299;SDS011;10809;49.476;11.016;2023-07-29T02:13:01;1.98;;;1.88;;
21299;SDS011;10809;49.476;11.016;2023-07-29T02:15:36;2.17;;;2.03;;
21299;SDS011;10809;49.476;11.016;2023-07-29T02:18:06;1.85;;;1.83;;
21299;SDS011;10809;49.476;11.016;2023-07-29T02:20:37;3.05;;;1.77;;
21299;SDS011;10809;49.476;11.016;2023-07-29T02:23:08;2.13;;;2.05;;
21299;SDS011;10809;49.476;11.016;2023-07-29T02:25:38;2.05;;;1.95;;
21299;SDS011;10809;49.476;11.016;2023-07-29T02:28:08;2.28;;;2.17;;
21299;SDS011;10809;49.476;11.016;2023-07-29T02:30:48;2.17;;;2.08;;
21299;SDS011;10809;49.476;11.016;2023-07-29T02:33:44;2.65;;;2.53;;
21299;SDS011;10809;49.476;11.016;2023-07-29T02:36:20;1.95;;;1.88;;
21299;SDS011;10809;49.476;11.016;2023-07-29T02:38:54;2.30;;;2.20;;
21299;SDS011;10809;49.476;11.016;2023-07-29T02:41:27;2.22;;;2.13;;
21299;SDS011;10809;49.476;11.016;2023-07-29T02:43:58;2.22;;;2.13;;
21299;SDS011;10809;49.476;11.016;2023-07-29T02:46:29;1.92;;;1.92;;
21299;SDS011;10809;49.476;11.016;2023-07-29T02:49:01;2.13;;;2.03;;
21299;SDS011;10809;49.476;11.016;2023-07-29T02:51:35;2.38;;;2.20;;
21299;SDS011;10809;49.476;11.016;2023-07-29T02:54:05;2.42;;;2.33;;
21299;SDS011;10809;49.476;11.016;2023-07-29T02:56:36;2.35;;;2.25;;
21299;SDS011;10809;49.476;11.016;2023-07-29T02:59:06;2.58;;;2.47;;
21299;SDS011;10809;49.476;11.016;2023-07-29T03:01:37;2.38;;;2.17;;
21299;SDS011;10809;49.476;11.016;2023-07-29T03:04:07;2.33;;;2.22;;
21299;SDS011;10809;49.476;11.016;2023-07-29T03:06:38;2.17;;;2.08;;
21299;SDS011;10809;49.476;11.016;2023-07-29T03:09:09;2.42;;;2.33;;
21299;SDS011;10809;49.476;11.016;2023-07-29T03:11:42;2.25;;;2.15;;
21299;SDS011;10809;49.476;11.016;2023-07-29T03:14:12;2.20;;;2.00;;
21299;SDS011;10809;49.476;11.016;2023-07-29T03:16:43;2.10;;;1.90;;
21299;SDS011;10809;49.476;11.016;2023-07-29T03:19:13;2.10;;;2.00;;
21299;SDS011;10809;49.476;11.016;2023-07-29T03:21:44;2.50;;;2.40;;
21299;SDS011;10809;49.476;11.016;2023-07-29T03:24:25;2.33;;;2.22;;
21299;SDS011;10809;49.476;11.016;2023-07-29T03:26:55;2.22;;;2.13;;
21299;SDS011;10809;49.476;11.016;2023-07-29T03:29:26;2.53;;;2.42;;
21299;SDS011;10809;49.476;11.016;2023-07-29T03:31:59;2.65;;;2.47;;
21299;SDS011;10809;49.476;11.016;2023-07-29T03:34:30;2.30;;;2.20;;
21299;SDS011;10809;49.476;11.016;2023-07-29T03:37:00;2.10;;;2.00;;
21299;SDS011;10809;49.476;11.016;2023-07-29T03:39:31;2.05;;;1.95;;
21299;SDS011;10809;49.476;11.016;2023-07-29T03:42:02;2.50;;;2.30;;
21299;SDS011;10809;49.476;11.016;2023-07-29T03:44:35;2.30;;;2.20;;
21299;SDS011;10809;49.476;11.016;2023-07-29T03:47:12;2.33;;;2.22;;
21299;SDS011;10809;49.476;11.016;2023-07-29T03:49:45;2.80;;;2.60;;
21299;SDS011;10809;49.476;11.016;2023-07-29T03:52:20;2.55;;;2.45;;
21299;SDS011;10809;49.476;11.016;2023-07-29T03:54:50;2.53;;;2.42;;
21299;SDS011;10809;49.476;11.016;2023-07-29T03:57:21;2.63;;;2.42;;
21299;SDS011;10809;49.476;11.016;2023-07-29T03:59:51;2.00;;;1.90;;
21299;SDS011;10809;49.476;11.016;2023-07-29T04:02:22;2.97;;;2.78;;
21299;SDS011;10809;49.476;11.016;2023-07-29T04:04:52;2.63;;;2.42;;
21299;SDS011;10809;49.476;11.016;2023-07-29T04:07:23;2.45;;;2.35;;
21299;SDS011;10809;49.476;11.016;2023-07-29T04:09:53;2.50;;;2.40;;
21299;SDS011;10809;49.476;11.016;2023-07-29T04:12:24;2.13;;;2.03;;
21299;SDS011;10809;49.476;11.016;2023-07-29T04:14:57;2.33;;;2.22;;
21299;SDS011;10809;49.476;11.016;2023-07-29T04:17:28;2.30;;;2.20;;
21299;SDS011;10809;49.476;11.016;2023-07-29T04:19:58;3.92;;;2.75;;
21299;SDS011;10809;49.476;11.016;2023-07-29T04:22:47;2.83;;;2.63;;
21299;SDS011;10809;49.476;11.016;2023-07-29T04:25:18;2.40;;;2.30;;
21299;SDS011;10809;49.476;11.016;2023-07-29T04:27:55;2.17;;;2.08;;
21299;SDS011;10809;49.476;11.016;2023-07-29T04:30:36;2.03;;;1.92;;
21299;SDS011;10809;49.476;11.016;2023-07-29T04:33:07;2.25;;;2.15;;
21299;SDS011;10809;49.476;11.016;2023-07-29T04:35:37;3.58;;;2.53;;
21299;SDS011;10809;49.476;11.016;2023-07-29T04:38:11;2.10;;;2.00;;
21299;SDS011;10809;49.476;11.016;2023-07-29T04:40:44;3.60;;;2.10;;
21299;SDS011;10809;49.476;11.016;2023-07-29T04:43:15;2.05;;;1.95;;
21299;SDS011;10809;49.476;11.016;2023-07-29T04:45:45;2.92;;;1.85;;
21299;SDS011;10809;49.476;11.016;2023-07-29T04:48:19;2.47;;;2.38;;
21299;SDS011;10809;49.476;11.016;2023-07-29T04:50:56;2.17;;;2.08;;
21299;SDS011;10809;49.476;11.016;2023-07-29T04:53:27;2.75;;;2.38;;
21299;SDS011;10809;49.476;11.016;2023-07-29T04:55:57;2.20;;;2.10;;
21299;SDS011;10809;49.476;11.016;2023-07-29T04:58:28;2.38;;;2.15;;
21299;SDS011;10809;49.476;11.016;2023-07-29T05:01:05;2.28;;;2.17;;
21299;SDS011;10809;49.476;11.016;2023-07-29T05:03:36;2.33;;;2.22;;
21299;SDS011;10809;49.476;11.016;2023-07-29T05:06:08;2.30;;;2.20;;
21299;SDS011;10809;49.476;11.016;2023-07-29T05:08:38;1.95;;;1.90;;
21299;SDS011;10809;49.476;11.016;2023-07-29T05:11:09;2.08;;;1.98;;
21299;SDS011;10809;49.476;11.016;2023-07-29T05:13:40;2.28;;;2.17;;
21299;SDS011;10809;49.476;11.016;2023-07-29T05:16:10;2.00;;;1.90;;
21299;SDS011;10809;49.476;11.016;2023-07-29T05:18:44;2.25;;;2.15;;
21299;SDS011;10809;49.476;11.016;2023-07-29T05:21:14;2.45;;;2.35;;
21299;SDS011;10809;49.476;11.016;2023-07-29T05:23:48;3.03;;;2.88;;
21299;SDS011;10809;49.476;11.016;2023-07-29T05:26:22;3.47;;;3.17;;
21299;SDS011;10809;49.476;11.016;2023-07-29T05:28:59;3.33;;;3.10;;
21299;SDS011;10809;49.476;11.016;2023-07-29T05:31:30;3.72;;;3.42;;
21299;SDS011;10809;49.476;11.016;2023-07-29T05:34:03;4.22;;;3.10;;
21299;SDS011;10809;49.476;11.016;2023-07-29T05:36:43;3.40;;;3.10;;
21299;SDS011;10809;49.476;11.016;2023-07-29T05:39:14;2.97;;;2.78;;
21299;SDS011;10809;49.476;11.016;2023-07-29T05:41:44;2.88;;;2.63;;
21299;SDS011;10809;49.476;11.016;2023-07-29T05:44:16;2.13;;;2.03;;
21299;SDS011;10809;49.476;11.016;2023-07-29T05:46:46;2.20;;;2.10;;
21299;SDS011;10809;49.476;11.016;2023-07-29T05:49:17;2.05;;;1.95;;
21299;SDS011;10809;49.476;11.016;2023-07-29T05:51:48;2.17;;;1.98;;
21299;SDS011;10809;49.476;11.016;2023-07-29T05:54:24;2.03;;;1.92;;
21299;SDS011;10809;49.476;11.016;2023-07-29T05:56:58;2.20;;;1.65;;
21299;SDS011;10809;49.476;11.016;2023-07-29T05:59:29;1.50;;;1.48;;
21299;SDS011;10809;49.476;11.016;2023-07-29T06:01:59;2.13;;;1.95;;
21299;SDS011;10809;49.476;11.016;2023-07-29T06:04:30;1.83;;;1.73;;
21299;SDS011;10809;49.476;11.016;2023-07-29T06:07:00;2.00;;;1.88;;
21299;SDS011;10809;49.476;11.016;2023-07-29T06:09:31;1.90;;;1.80;;
21299;SDS011;10809;49.476;11.016;2023-07-29T06:12:01;1.70;;;1.60;;
21299;SDS011;10809;49.476;11.016;2023-07-29T06:14:32;1.92;;;1.58;;
21299;SDS011;10809;49.476;11.016;2023-07-29T06:17:02;1.58;;;1.58;;
21299;SDS011;10809;49.476;11.016;2023-07-29T06:19:33;1.73;;;1.63;;
21299;SDS011;10809;49.476;11.016;2023-07-29T06:22:06;1.40;;;1.40;;
21299;SDS011;10809;49.476;11.016;2023-07-29T06:24:37;1.80;;;1.80;;
21299;SDS011;10809;49.476;11.016;2023-07-29T06:27:07;1.92;;;1.83;;
21299;SDS011;10809;49.476;11.016;2023-07-29T06:29:38;1.33;;;1.33;;
21299;SDS011;10809;49.476;11.016;2023-07-29T06:32:08;1.48;;;1.48;;
21299;SDS011;10809;49.476;11.016;2023-07-29T06:34:39;1.58;;;1.48;;
21299;SDS011;10809;49.476;11.016;2023-07-29T06:37:09;1.55;;;1.45;;
21299;SDS011;10809;49.476;11.016;2023-07-29T06:39:46;1.60;;;1.50;;
21299;SDS011;10809;49.476;11.016;2023-07-29T06:42:16;1.40;;;1.30;;
21299;SDS011;10809;49.476;11.016;2023-07-29T06:44:50;1.90;;;1.80;;
21299;SDS011;10809;49.476;11.016;2023-07-29T06:47:20;1.90;;;1.80;;
21299;SDS011;10809;49.476;11.016;2023-07-29T06:49:54;1.90;;;1.80;;
21299;SDS011;10809;49.476;11.016;2023-07-29T06:52:24;2.03;;;1.92;;
21299;SDS011;10809;49.476;11.016;2023-07-29T06:54:58;2.25;;;2.08;;
21299;SDS011;10809;49.476;11.016;2023-07-29T06:57:28;2.20;;;2.10;;
21299;SDS011;10809;49.476;11.016;2023-07-29T06:59:59;1.70;;;1.60;;
21299;SDS011;10809;49.476;11.016;2023-07-29T07:02:30;1.63;;;1.63;;
21299;SDS011;10809;49.476;11.016;2023-07-29T07:05:00;1.45;;;1.45;;
21299;SDS011;10809;49.476;11.016;2023-07-29T07:07:33;2.10;;;1.75;;
21299;SDS011;10809;49.476;11.016;2023-07-29T07:10:04;1.80;;;1.70;;
21299;SDS011;10809;49.476;11.016;2023-07-29T07:12:35;2.08;;;1.98;;
21299;SDS011;10809;49.476;11.016;2023-07-29T07:15:05;1.88;;;1.77;;
21299;SDS011;10809;49.476;11.016;2023-07-29T07:17:36;1.73;;;1.63;;
21299;SDS011;10809;49.476;11.016;2023-07-29T07:20:10;1.80;;;1.70;;
21299;SDS011;10809;49.476;11.016;2023-07-29T07:22:41;2.20;;;2.05;;
21299;SDS011;10809;49.476;11.016;2023-07-29T07:25:12;4.28;;;3.15;;
21299;SDS011;10809;49.476;11.016;2023-07-29T07:27:42;3.15;;;2.85;;
21299;SDS011;10809;49.476;11.016;2023-07-29T07:30:16;2.97;;;2.72;;
21299;SDS011;10809;49.476;11.016;2023-07-29T07:32:46;3.20;;;3.00;;
21299;SDS011;10809;49.476;11.016;2023-07-29T07:35:17;2.58;;;2.40;;
21299;SDS011;10809;49.476;11.016;2023-07-29T07:37:48;2.75;;;2.60;;
21299;SDS011;10809;49.476;11.016;2023-07-29T07:40:19;2.20;;;1.98;;
21299;SDS011;10809;49.476;11.016;2023-07-29T07:42:49;2.33;;;2.22;;
21299;SDS011;10809;49.476;11.016;2023-07-29T07:45:20;2.13;;;2.03;;
21299;SDS011;10809;49.476;11.016;2023-07-29T07:47:59;2.22;;;2.17;;
21299;SDS011;10809;49.476;11.016;2023-07-29T07:50:30;2.45;;;2.40;;
21299;SDS011;10809;49.476;11.016;2023-07-29T07:53:01;2.78;;;2.58;;
21299;SDS011;10809;49.476;11.016;2023-07-29T07:55:37;2.67;;;2.58;;
21299;SDS011;10809;49.476;11.016;2023-07-29T07:58:08;7.15;;;3.20;;
21299;SDS011;10809;49.476;11.016;2023-07-29T08:00:38;3.63;;;3.42;;
21299;SDS011;10809;49.476;11.016;2023-07-29T08:03:09;3.33;;;3.22;;
21299;SDS011;10809;49.476;11.016;2023-07-29T08:05:42;3.20;;;3.10;;
21299;SDS011;10809;49.476;11.016;2023-07-29T08:08:12;3.53;;;3.35;;
21299;SDS011;10809;49.476;11.016;2023-07-29T08:10:46;4.45;;;4.25;;
21299;SDS011;10809;49.476;11.016;2023-07-29T08:13:23;4.13;;;3.95;;
21299;SDS011;10809;49.476;11.016;2023-07-29T08:15:54;4.50;;;4.30;;
21299;SDS011;10809;49.476;11.016;2023-07-29T08:18:25;4.85;;;4.57;;
21299;SDS011;10809;49.476;11.016;2023-07-29T08:20:56;5.40;;;5.00;;
21299;SDS011;10809;49.476;11.016;2023-07-29T08:23:32;5.15;;;4.85;;
21299;SDS011;10809;49.476;11.016;2023-07-29T08:26:05;5.43;;;5.18;;
21299;SDS011;10809;49.476;11.016;2023-07-29T08:28:37;5.70;;;5.45;;
21299;SDS011;10809;49.476;11.016;2023-07-29T08:31:08;5.45;;;5.20;;
21299;SDS011;10809;49.476;11.016;2023-07-29T08:36:15;5.50;;;5.22;;
21299;SDS011;10809;49.476;11.016;2023-07-29T08:38:49;5.38;;;5.13;;
21299;SDS011;10809;49.476;11.016;2023-07-29T08:41:21;5.63;;;5.32;;
21299;SDS011;10809;49.476;11.016;2023-07-29T08:46:30;5.47;;;5.18;;
21299;SDS011;10809;49.476;11.016;2023-07-29T08:49:01;5.40;;;5.10;;
21299;SDS011;10809;49.476;11.016;2023-07-29T08:51:32;5.00;;;4.80;;
21299;SDS011;10809;49.476;11.016;2023-07-29T08:54:07;4.10;;;3.90;;
21299;SDS011;10809;49.476;11.016;2023-07-29T08:56:40;3.63;;;3.53;;
21299;SDS011;10809;49.476;11.016;2023-07-29T08:59:12;4.43;;;4.22;;
21299;SDS011;10809;49.476;11.016;2023-07-29T09:01:43;4.05;;;3.95;;
21299;SDS011;10809;49.476;11.016;2023-07-29T09:04:14;3.67;;;3.33;;
21299;SDS011;10809;49.476;11.016;2023-07-29T09:06:45;3.97;;;3.83;;
21299;SDS011;10809;49.476;11.016;2023-07-29T09:09:17;2.92;;;2.83;;
21299;SDS011;10809;49.476;11.016;2023-07-29T09:11:47;2.47;;;2.47;;
21299;SDS011;10809;49.476;11.016;2023-07-29T09:14:18;2.83;;;2.70;;
21299;SDS011;10809;49.476;11.016;2023-07-29T09:16:49;2.78;;;2.58;;
21299;SDS011;10809;49.476;11.016;2023-07-29T09:19:19;2.22;;;2.13;;
21299;SDS011;10809;49.476;11.016;2023-07-29T09:21:50;3.00;;;2.30;;
21299;SDS011;10809;49.476;11.016;2023-07-29T09:24:20;2.28;;;2.17;;
21299;SDS011;10809;49.476;11.016;2023-07-29T09:26:57;2.58;;;2.38;;
21299;SDS011;10809;49.476;11.016;2023-07-29T09:29:28;2.05;;;1.95;;
21299;SDS011;10809;49.476;11.016;2023-07-29T09:32:17;3.58;;;2.22;;
21299;SDS011;10809;49.476;11.016;2023-07-29T09:34:51;2.05;;;1.95;;
21299;SDS011;10809;49.476;11.016;2023-07-29T09:37:25;1.67;;;1.67;;
21299;SDS011;10809;49.476;11.016;2023-07-29T09:39:56;1.70;;;1.60;;
21299;SDS011;10809;49.476;11.016;2023-07-29T09:42:26;2.20;;;2.10;;
21299;SDS011;10809;49.476;11.016;2023-07-29T09:44:57;2.17;;;2.17;;
21299;SDS011;10809;49.476;11.016;2023-07-29T09:47:27;2.20;;;2.10;;
21299;SDS011;10809;49.476;11.016;2023-07-29T09:49:59;1.92;;;1.92;;
21299;SDS011;10809;49.476;11.016;2023-07-29T09:52:29;2.28;;;2.17;;
21299;SDS011;10809;49.476;11.016;2023-07-29T09:55:00;2.47;;;2.38;;
21299;SDS011;10809;49.476;11.016;2023-07-29T09:57:43;2.88;;;2.78;;
21299;SDS011;10809;49.476;11.016;2023-07-29T10:00:13;3.47;;;3.33;;
21299;SDS011;10809;49.476;11.016;2023-07-29T10:02:44;4.38;;;4.28;;
21299;SDS011;10809;49.476;11.016;2023-07-29T10:05:15;5.22;;;5.10;;
21299;SDS011;10809;49.476;11.016;2023-07-29T10:07:46;6.35;;;6.13;;
21299;SDS011;10809;49.476;11.016;2023-07-29T10:10:18;7.43;;;7.13;;
21299;SDS011;10809;49.476;11.016;2023-07-29T10:12:54;6.80;;;6.40;;
21299;SDS011;10809;49.476;11.016;2023-07-29T10:15:26;7.32;;;6.90;;
21299;SDS011;10809;49.476;11.016;2023-07-29T10:17:58;6.68;;;6.38;;
21299;SDS011;10809;49.476;11.016;2023-07-29T10:20:32;6.10;;;5.80;;
21299;SDS011;10809;49.476;11.016;2023-07-29T10:23:05;5.75;;;4.85;;
21299;SDS011;10809;49.476;11.016;2023-07-29T10:25:39;3.97;;;3.88;;
21299;SDS011;10809;49.476;11.016;2023-07-29T10:28:31;3.75;;;3.63;;
21299;SDS011;10809;49.476;11.016;2023-07-29T10:31:02;3.35;;;3.15;;
21299;SDS011;10809;49.476;11.016;2023-07-29T10:33:34;3.20;;;3.00;;
21299;SDS011;10809;49.476;11.016;2023-07-29T10:36:04;3.15;;;2.95;;
21299;SDS011;10809;49.476;11.016;2023-07-29T10:38:35;3.15;;;2.97;;
21299;SDS011;10809;49.476;11.016;2023-07-29T10:41:06;3.53;;;3.38;;
21299;SDS011;10809;49.476;11.016;2023-07-29T10:43:37;3.40;;;3.30;;
21299;SDS011;10809;49.476;11.016;2023-07-29T10:46:28;3.67;;;3.47;;
21299;SDS011;10809;49.476;11.016;2023-07-29T10:49:05;3.10;;;2.90;;
21299;SDS011;10809;49.476;11.016;2023-07-29T10:51:44;3.88;;;3.67;;
21299;SDS011;10809;49.476;11.016;2023-07-29T10:54:21;2.88;;;2.78;;
21299;SDS011;10809;49.476;11.016;2023-07-29T10:56:51;3.30;;;3.10;;
21299;SDS011;10809;49.476;11.016;2023-07-29T10:59:31;2.92;;;2.83;;
21299;SDS011;10809;49.476;11.016;2023-07-29T11:02:11;2.97;;;2.88;;
21299;SDS011;10809;49.476;11.016;2023-07-29T11:04:51;2.35;;;2.35;;
21299;SDS011;10809;49.476;11.016;2023-07-29T11:07:28;2.58;;;2.47;;
21299;SDS011;10809;49.476;11.016;2023-07-29T11:09:59;2.38;;;2.28;;
21299;SDS011;10809;49.476;11.016;2023-07-29T11:18:03;2.13;;;2.13;;
21299;SDS011;10809;49.476;11.016;2023-07-29T11:20:33;1.98;;;1.98;;
21299;SDS011;10809;49.476;11.016;2023-07-29T11:23:04;2.15;;;2.05;;
21299;SDS011;10809;49.476;11.016;2023-07-29T11:25:35;2.08;;;1.98;;
21299;SDS011;10809;49.476;11.016;2023-07-29T11:28:09;2.17;;;1.98;;
21299;SDS011;10809;49.476;11.016;2023-07-29T11:30:45;1.88;;;1.77;;
21299;SDS011;10809;49.476;11.016;2023-07-29T11:33:28;1.75;;;1.75;;
21299;SDS011;10809;49.476;11.016;2023-07-29T11:35:58;1.98;;;1.88;;
21299;SDS011;10809;49.476;11.016;2023-07-29T11:38:32;1.98;;;1.88;;
21299;SDS011;10809;49.476;11.016;2023-07-29T11:41:07;1.90;;;1.80;;
21299;SDS011;10809;49.476;11.016;2023-07-29T11:43:38;2.17;;;2.08;;
21299;SDS011;10809;49.476;11.016;2023-07-29T11:46:08;2.38;;;2.10;;
21299;SDS011;10809;49.476;11.016;2023-07-29T11:48:53;1.85;;;1.85;;
21299;SDS011;10809;49.476;11.016;2023-07-29T11:51:27;1.88;;;1.88;;
21299;SDS011;10809;49.476;11.016;2023-07-29T11:53:58;2.22;;;2.13;;
21299;SDS011;10809;49.476;11.016;2023-07-29T11:56:30;2.70;;;2.55;;
21299;SDS011;10809;49.476;11.016;2023-07-29T11:59:01;2.03;;;2.03;;
21299;SDS011;10809;49.476;11.016;2023-07-29T12:01:33;2.53;;;2.38;;
21299;SDS011;10809;49.476;11.016;2023-07-29T12:04:03;1.92;;;1.85;;
21299;SDS011;10809;49.476;11.016;2023-07-29T12:06:34;2.03;;;2.03;;
21299;SDS011;10809;49.476;11.016;2023-07-29T12:09:05;2.45;;;2.20;;
21299;SDS011;10809;49.476;11.016;2023-07-29T12:11:36;2.50;;;2.40;;
21299;SDS011;10809;49.476;11.016;2023-07-29T12:14:07;2.03;;;2.03;;
21299;SDS011;10809;49.476;11.016;2023-07-29T12:16:42;1.95;;;1.88;;
21299;SDS011;10809;49.476;11.016;2023-07-29T12:19:13;2.22;;;2.13;;
21299;SDS011;10809;49.476;11.016;2023-07-29T12:21:45;2.03;;;2.00;;
21299;SDS011;10809;49.476;11.016;2023-07-29T12:24:15;2.08;;;1.98;;
21299;SDS011;10809;49.476;11.016;2023-07-29T12:26:46;2.05;;;1.95;;
21299;SDS011;10809;49.476;11.016;2023-07-29T12:29:18;2.20;;;2.10;;
21299;SDS011;10809;49.476;11.016;2023-07-29T12:31:59;2.40;;;2.28;;
21299;SDS011;10809;49.476;11.016;2023-07-29T12:34:31;2.47;;;2.38;;
21299;SDS011;10809;49.476;11.016;2023-07-29T12:37:02;2.97;;;2.78;;
21299;SDS011;10809;49.476;11.016;2023-07-29T12:39:34;1.80;;;1.80;;
21299;SDS011;10809;49.476;11.016;2023-07-29T12:42:09;2.15;;;2.05;;
21299;SDS011;10809;49.476;11.016;2023-07-29T12:44:40;3.13;;;2.38;;
21299;SDS011;10809;49.476;11.016;2023-07-29T12:47:10;2.40;;;2.30;;
21299;SDS011;10809;49.476;11.016;2023-07-29T12:49:41;2.38;;;2.20;;
21299;SDS011;10809;49.476;11.016;2023-07-29T12:52:12;1.98;;;1.98;;
21299;SDS011;10809;49.476;11.016;2023-07-29T12:54:42;2.38;;;2.28;;
21299;SDS011;10809;49.476;11.016;2023-07-29T12:57:14;2.28;;;2.17;;
21299;SDS011;10809;49.476;11.016;2023-07-29T12:59:44;1.83;;;1.83;;
21299;SDS011;10809;49.476;11.016;2023-07-29T13:02:15;2.15;;;2.15;;
21299;SDS011;10809;49.476;11.016;2023-07-29T13:04:46;2.55;;;2.45;;
21299;SDS011;10809;49.476;11.016;2023-07-29T13:07:18;2.30;;;2.20;;
21299;SDS011;10809;49.476;11.016;2023-07-29T13:09:48;2.55;;;2.47;;
21299;SDS011;10809;49.476;11.016;2023-07-29T13:12:22;1.85;;;1.85;;
21299;SDS011;10809;49.476;11.016;2023-07-29T13:14:55;2.15;;;2.13;;
21299;SDS011;10809;49.476;11.016;2023-07-29T13:17:26;2.42;;;2.33;;
21299;SDS011;10809;49.476;11.016;2023-07-29T13:20:02;2.22;;;2.13;;
21299;SDS011;10809;49.476;11.016;2023-07-29T13:22:33;2.33;;;2.25;;
21299;SDS011;10809;49.476;11.016;2023-07-29T13:25:04;2.10;;;2.10;;
21299;SDS011;10809;49.476;11.016;2023-07-29T13:27:34;2.10;;;2.00;;
21299;SDS011;10809;49.476;11.016;2023-07-29T13:30:05;5.05;;;2.35;;
21299;SDS011;10809;49.476;11.016;2023-07-29T13:32:39;2.15;;;2.13;;
21299;SDS011;10809;49.476;11.016;2023-07-29T13:35:09;2.30;;;2.25;;
21299;SDS011;10809;49.476;11.016;2023-07-29T13:37:40;2.03;;;2.03;;
21299;SDS011;10809;49.476;11.016;2023-07-29T13:40:10;2.17;;;2.17;;
21299;SDS011;10809;49.476;11.016;2023-07-29T13:42:41;2.35;;;2.25;;
21299;SDS011;10809;49.476;11.016;2023-07-29T13:45:14;2.15;;;2.15;;
21299;SDS011;10809;49.476;11.016;2023-07-29T13:47:48;2.30;;;2.30;;
21299;SDS011;10809;49.476;11.016;2023-07-29T13:50:29;2.15;;;2.15;;
21299;SDS011;10809;49.476;11.016;2023-07-29T13:52:59;2.30;;;2.28;;
21299;SDS011;10809;49.476;11.016;2023-07-29T13:55:30;2.28;;;2.28;;
21299;SDS011;10809;49.476;11.016;2023-07-29T13:58:00;2.20;;;2.10;;
21299;SDS011;10809;49.476;11.016;2023-07-29T14:00:31;2.15;;;2.10;;
21299;SDS011;10809;49.476;11.016;2023-07-29T14:03:01;2.42;;;2.33;;
21299;SDS011;10809;49.476;11.016;2023-07-29T14:05:32;2.08;;;2.08;;
21299;SDS011;10809;49.476;11.016;2023-07-29T14:08:05;2.30;;;2.17;;
21299;SDS011;10809;49.476;11.016;2023-07-29T14:10:36;2.00;;;2.00;;
21299;SDS011;10809;49.476;11.016;2023-07-29T14:13:06;2.40;;;2.30;;
21299;SDS011;10809;49.476;11.016;2023-07-29T14:15:37;1.95;;;1.95;;
21299;SDS011;10809;49.476;11.016;2023-07-29T14:18:07;1.90;;;1.90;;
21299;SDS011;10809;49.476;11.016;2023-07-29T14:20:38;2.15;;;2.15;;
21299;SDS011;10809;49.476;11.016;2023-07-29T14:23:08;2.15;;;2.05;;
21299;SDS011;10809;49.476;11.016;2023-07-29T14:25:42;2.17;;;2.17;;
21299;SDS011;10809;49.476;11.016;2023-07-29T14:28:13;2.85;;;2.05;;
21299;SDS011;10809;49.476;11.016;2023-07-29T14:30:44;2.22;;;2.22;;
21299;SDS011;10809;49.476;11.016;2023-07-29T14:33:14;2.55;;;2.47;;
21299;SDS011;10809;49.476;11.016;2023-07-29T14:38:27;1.83;;;1.83;;
21299;SDS011;10809;49.476;11.016;2023-07-29T14:40:57;2.00;;;2.00;;
21299;SDS011;10809;49.476;11.016;2023-07-29T14:43:28;2.17;;;2.17;;
21299;SDS011;10809;49.476;11.016;2023-07-29T14:45:59;1.98;;;1.98;;
21299;SDS011;10809;49.476;11.016;2023-07-29T14:48:29;2.17;;;2.08;;
21299;SDS011;10809;49.476;11.016;2023-07-29T14:51:00;2.38;;;2.28;;
21299;SDS011;10809;49.476;11.016;2023-07-29T14:53:30;2.05;;;1.95;;
21299;SDS011;10809;49.476;11.016;2023-07-29T14:56:01;2.10;;;2.10;;
21299;SDS011;10809;49.476;11.016;2023-07-29T14:58:32;2.22;;;2.13;;
21299;SDS011;10809;49.476;11.016;2023-07-29T15:01:02;1.77;;;1.77;;
21299;SDS011;10809;49.476;11.016;2023-07-29T15:03:32;2.17;;;2.17;;
21299;SDS011;10809;49.476;11.016;2023-07-29T15:06:03;1.95;;;1.95;;
21299;SDS011;10809;49.476;11.016;2023-07-29T15:08:33;2.75;;;2.65;;
21299;SDS011;10809;49.476;11.016;2023-07-29T15:11:04;1.92;;;1.92;;
21299;SDS011;10809;49.476;11.016;2023-07-29T15:13:35;2.17;;;2.17;;
21299;SDS011;10809;49.476;11.016;2023-07-29T15:16:09;2.60;;;2.50;;
21299;SDS011;10809;49.476;11.016;2023-07-29T15:18:40;2.15;;;2.15;;
21299;SDS011;10809;49.476;11.016;2023-07-29T15:21:10;1.85;;;1.85;;
21299;SDS011;10809;49.476;11.016;2023-07-29T15:23:41;59.90;;;30.00;;
21299;SDS011;10809;49.476;11.016;2023-07-29T15:26:18;51.30;;;33.92;;